createdAt,value
2018-06-16T00:01:22.201Z,16.20
2018-06-16T00:03:50.463Z,16.30
2018-06-16T00:06:18.686Z,16.30
2018-06-16T00:08:46.890Z,16.20
2018-06-16T00:11:15.112Z,16.20
2018-06-16T00:13:43.365Z,16.10
2018-06-16T00:16:11.581Z,16.10
2018-06-16T00:18:39.877Z,16.10
2018-06-16T00:21:08.114Z,16.10
2018-06-16T00:23:36.351Z,16.00
2018-06-16T00:28:32.752Z,16.00
2018-06-16T00:31:00.972Z,16.00
2018-06-16T00:33:29.211Z,15.90
2018-06-16T00:35:57.404Z,15.90
2018-06-16T00:38:25.667Z,15.90
2018-06-16T00:40:54.141Z,15.90
2018-06-16T00:43:22.385Z,15.80
2018-06-16T00:45:50.574Z,15.80
2018-06-16T00:48:18.777Z,15.80
2018-06-16T00:50:46.978Z,15.70
2018-06-16T00:55:43.164Z,15.70
2018-06-16T00:58:11.351Z,15.70
2018-06-16T01:00:39.589Z,15.70
2018-06-16T01:05:35.746Z,15.60
2018-06-16T01:08:03.980Z,15.60
2018-06-16T01:10:32.199Z,15.50
2018-06-16T01:13:00.405Z,15.40
2018-06-16T01:15:28.618Z,15.40
2018-06-16T01:17:56.846Z,15.40
2018-06-16T01:20:25.045Z,15.30
2018-06-16T01:22:53.245Z,15.20
2018-06-16T01:25:21.576Z,15.10
2018-06-16T01:27:49.819Z,15.00
2018-06-16T01:30:18.034Z,14.90
2018-06-16T01:32:46.243Z,14.90
2018-06-16T01:35:14.458Z,14.80
2018-06-16T01:37:42.670Z,14.80
2018-06-16T01:40:10.862Z,14.70
2018-06-16T01:45:07.073Z,14.60
2018-06-16T01:47:35.289Z,14.60
2018-06-16T01:50:03.534Z,14.50
2018-06-16T01:52:31.749Z,14.40
2018-06-16T01:54:59.977Z,14.30
2018-06-16T01:57:28.193Z,14.30
2018-06-16T01:59:56.393Z,14.30
2018-06-16T02:02:24.601Z,14.30
2018-06-16T02:04:52.801Z,14.20
2018-06-16T02:09:49.012Z,14.20
2018-06-16T02:12:17.217Z,14.20
2018-06-16T02:14:45.446Z,14.20
2018-06-16T02:17:13.658Z,14.10
2018-06-16T02:19:41.887Z,14.10
2018-06-16T02:22:10.097Z,14.10
2018-06-16T02:24:38.394Z,14.00
2018-06-16T02:27:06.614Z,14.00
2018-06-16T02:29:34.813Z,13.90
2018-06-16T02:32:03.215Z,13.90
2018-06-16T02:34:31.414Z,13.90
2018-06-16T02:36:59.658Z,13.80
2018-06-16T02:39:27.865Z,13.80
2018-06-16T02:41:56.135Z,13.90
2018-06-16T02:44:24.348Z,13.90
2018-06-16T02:46:52.567Z,13.90
2018-06-16T02:49:20.782Z,13.80
2018-06-16T02:51:48.998Z,13.80
2018-06-16T02:54:17.378Z,13.80
2018-06-16T02:56:45.650Z,13.80
2018-06-16T02:59:13.866Z,13.70
2018-06-16T03:01:42.124Z,13.80
2018-06-16T03:04:10.326Z,13.70
2018-06-16T03:06:38.534Z,13.70
2018-06-16T03:09:07.698Z,13.70
2018-06-16T03:11:35.919Z,13.70
2018-06-16T03:14:04.123Z,13.70
2018-06-16T03:16:32.386Z,13.70
2018-06-16T03:19:00.644Z,13.80
2018-06-16T03:21:28.837Z,13.80
2018-06-16T03:23:57.052Z,13.80
2018-06-16T03:26:25.253Z,13.80
2018-06-16T03:28:53.497Z,13.80
2018-06-16T03:31:21.698Z,13.80
2018-06-16T03:33:49.921Z,13.80
2018-06-16T03:36:18.174Z,13.80
2018-06-16T03:38:46.370Z,13.90
2018-06-16T03:41:14.610Z,13.90
2018-06-16T03:43:42.822Z,14.00
2018-06-16T03:46:11.057Z,14.00
2018-06-16T03:48:39.261Z,14.00
2018-06-16T03:51:07.536Z,14.00
2018-06-16T03:53:35.798Z,14.10
2018-06-16T03:56:04.086Z,14.10
2018-06-16T03:58:32.312Z,14.10
2018-06-16T04:01:00.582Z,14.10
2018-06-16T04:03:28.801Z,14.20
2018-06-16T04:05:57.002Z,14.20
2018-06-16T04:08:25.204Z,14.30
2018-06-16T04:10:53.498Z,14.30
2018-06-16T04:13:21.717Z,14.40
2018-06-16T04:15:49.914Z,14.40
2018-06-16T04:18:18.155Z,14.50
2018-06-16T04:20:46.353Z,14.50
2018-06-16T04:23:14.603Z,14.60
2018-06-16T04:25:42.795Z,14.60
2018-06-16T04:28:11.036Z,14.70
2018-06-16T04:30:39.257Z,14.70
2018-06-16T04:33:07.450Z,14.80
2018-06-16T04:35:35.689Z,14.80
2018-06-16T04:38:03.929Z,14.90
2018-06-16T04:40:32.119Z,14.90
2018-06-16T04:43:00.517Z,15.00
2018-06-16T04:45:28.881Z,15.10
2018-06-16T04:47:56.985Z,15.30
2018-06-16T04:50:25.255Z,15.50
2018-06-16T04:52:53.474Z,15.60
2018-06-16T04:55:21.710Z,15.60
2018-06-16T04:57:50.038Z,15.60
2018-06-16T05:00:18.310Z,15.60
2018-06-16T05:02:46.540Z,15.60
2018-06-16T05:05:14.750Z,15.60
2018-06-16T05:07:42.970Z,15.50
2018-06-16T05:10:11.215Z,15.50
2018-06-16T05:12:39.463Z,15.50
2018-06-16T05:17:35.976Z,15.60
2018-06-16T05:20:04.173Z,15.70
2018-06-16T05:22:32.483Z,15.90
2018-06-16T05:25:00.698Z,15.90
2018-06-16T05:27:29.173Z,15.90
2018-06-16T05:29:57.378Z,15.90
2018-06-16T05:32:25.567Z,15.90
2018-06-16T05:37:21.753Z,16.00
2018-06-16T05:39:49.969Z,16.00
2018-06-16T05:42:18.203Z,16.10
2018-06-16T05:44:46.424Z,16.20
2018-06-16T05:47:14.644Z,16.20
2018-06-16T05:49:42.852Z,16.20
2018-06-16T05:52:11.056Z,16.30
2018-06-16T05:54:39.273Z,16.40
2018-06-16T05:57:07.483Z,16.50
2018-06-16T05:59:35.730Z,16.60
2018-06-16T06:02:04.174Z,16.70
2018-06-16T06:04:32.387Z,16.80
2018-06-16T06:07:00.598Z,16.90
2018-06-16T06:09:28.814Z,17.00
2018-06-16T06:11:57.038Z,17.10
2018-06-16T06:14:25.259Z,17.20
2018-06-16T06:16:53.472Z,17.20
2018-06-16T06:19:21.682Z,17.30
2018-06-16T06:21:49.882Z,17.40
2018-06-16T06:24:18.132Z,17.60
2018-06-16T06:26:46.375Z,17.70
2018-06-16T06:29:14.565Z,17.70
2018-06-16T06:31:43.410Z,17.80
2018-06-16T06:34:11.646Z,17.90
2018-06-16T06:36:39.834Z,18.00
2018-06-16T06:39:08.893Z,18.10
2018-06-16T06:41:37.173Z,18.30
2018-06-16T06:44:05.494Z,18.40
2018-06-16T06:46:34.661Z,18.40
2018-06-16T06:49:02.954Z,18.50
2018-06-16T06:51:31.199Z,18.60
2018-06-16T06:53:59.418Z,18.70
2018-06-16T06:56:27.799Z,18.70
2018-06-16T06:58:56.057Z,18.80
2018-06-16T07:01:24.361Z,18.90
2018-06-16T07:03:52.664Z,19.00
2018-06-16T07:06:20.827Z,19.00
2018-06-16T07:08:49.046Z,19.10
2018-06-16T07:11:17.290Z,19.10
2018-06-16T07:13:45.508Z,19.20
2018-06-16T07:16:13.723Z,19.30
2018-06-16T07:18:41.926Z,19.50
2018-06-16T07:21:10.149Z,19.50
2018-06-16T07:23:38.372Z,19.70
2018-06-16T07:26:06.592Z,19.80
2018-06-16T07:28:34.822Z,19.90
2018-06-16T07:31:03.042Z,19.90
2018-06-16T07:33:31.269Z,20.00
2018-06-16T07:35:59.517Z,20.20
2018-06-16T07:38:27.726Z,20.20
2018-06-16T07:40:56.158Z,20.30
2018-06-16T07:43:24.390Z,20.40
2018-06-16T07:45:52.594Z,20.40
2018-06-16T07:48:20.874Z,20.50
2018-06-16T07:53:17.085Z,20.70
2018-06-16T07:55:45.351Z,20.80
2018-06-16T07:58:13.554Z,20.90
2018-06-16T08:00:41.781Z,21.00
2018-06-16T08:03:10.406Z,21.00
2018-06-16T08:05:38.655Z,21.10
2018-06-16T08:08:06.861Z,21.10
2018-06-16T08:10:35.109Z,21.10
2018-06-16T08:13:03.308Z,21.20
2018-06-16T08:15:31.563Z,21.30
2018-06-16T08:17:59.827Z,21.40
2018-06-16T08:20:28.038Z,21.50
2018-06-16T08:22:56.299Z,21.50
2018-06-16T08:25:24.526Z,21.50
2018-06-16T08:27:52.749Z,21.60
2018-06-16T08:30:20.966Z,21.70
2018-06-16T08:32:49.169Z,21.70
2018-06-16T08:35:17.461Z,21.90
2018-06-16T08:37:45.670Z,22.00
2018-06-16T08:40:14.509Z,22.10
2018-06-16T08:42:42.736Z,22.10
2018-06-16T08:45:10.961Z,22.10
2018-06-16T08:47:39.182Z,22.10
2018-06-16T08:50:07.412Z,22.20
2018-06-16T08:52:35.677Z,22.30
2018-06-16T08:55:03.934Z,22.30
2018-06-16T08:57:32.179Z,22.30
2018-06-16T09:00:00.435Z,22.50
2018-06-16T09:02:28.633Z,22.70
2018-06-16T09:04:56.823Z,23.00
2018-06-16T09:07:25.093Z,23.20
2018-06-16T09:09:53.326Z,23.40
2018-06-16T09:12:21.797Z,23.60
2018-06-16T09:14:50.196Z,23.60
2018-06-16T09:17:18.490Z,23.70
2018-06-16T09:19:47.118Z,23.70
2018-06-16T09:22:15.337Z,23.60
2018-06-16T09:24:43.575Z,23.60
2018-06-16T09:27:11.797Z,23.70
2018-06-16T09:29:40.225Z,23.80
2018-06-16T09:32:08.457Z,23.90
2018-06-16T09:34:36.670Z,24.10
2018-06-16T09:37:05.032Z,24.10
2018-06-16T09:39:33.262Z,24.30
2018-06-16T09:42:01.499Z,24.40
2018-06-16T09:44:29.702Z,24.50
2018-06-16T09:46:57.908Z,24.70
2018-06-16T09:49:26.153Z,24.80
2018-06-16T09:51:54.658Z,24.90
2018-06-16T09:54:22.871Z,24.70
2018-06-16T09:56:51.135Z,24.60
2018-06-16T09:59:19.351Z,24.50
2018-06-16T10:01:47.534Z,24.50
2018-06-16T10:04:15.767Z,24.50
2018-06-16T10:06:43.996Z,24.50
2018-06-16T10:09:12.241Z,24.60
2018-06-16T10:11:40.478Z,24.70
2018-06-16T10:14:08.858Z,24.90
2018-06-16T10:16:37.194Z,25.10
2018-06-16T10:19:05.425Z,25.30
2018-06-16T10:21:33.659Z,25.60
2018-06-16T10:24:01.862Z,25.80
2018-06-16T10:26:30.156Z,26.00
2018-06-16T10:28:58.431Z,26.00
2018-06-16T10:31:26.688Z,26.10
2018-06-16T10:33:54.927Z,26.30
2018-06-16T10:36:23.322Z,26.50
2018-06-16T10:38:51.550Z,26.50
2018-06-16T10:41:19.846Z,26.50
2018-06-16T10:43:48.106Z,26.60
2018-06-16T10:46:16.317Z,26.70
2018-06-16T10:48:44.522Z,26.80
2018-06-16T10:51:12.718Z,26.90
2018-06-16T10:53:41.114Z,27.00
2018-06-16T10:56:09.404Z,27.10
2018-06-16T10:58:37.896Z,27.40
2018-06-16T11:01:06.129Z,27.40
2018-06-16T11:06:02.330Z,27.50
2018-06-16T11:08:30.632Z,27.70
2018-06-16T11:10:58.918Z,28.00
2018-06-16T11:13:27.217Z,28.60
2018-06-16T11:15:55.463Z,29.10
2018-06-16T11:18:23.666Z,29.60
2018-06-16T11:20:52.015Z,30.00
2018-06-16T11:23:20.210Z,30.20
2018-06-16T11:25:48.474Z,30.20
2018-06-16T11:28:16.693Z,30.60
2018-06-16T11:30:44.913Z,31.00
2018-06-16T11:33:13.150Z,31.60
2018-06-16T11:35:41.361Z,32.50
2018-06-16T11:38:09.709Z,33.60
2018-06-16T11:40:38.004Z,35.20
2018-06-16T11:43:06.718Z,36.90
2018-06-16T11:48:02.886Z,37.30
2018-06-16T11:50:31.143Z,36.90
2018-06-16T11:52:59.389Z,36.80
2018-06-16T11:55:27.622Z,37.10
2018-06-16T11:57:55.886Z,37.30
2018-06-16T12:00:24.090Z,37.40
2018-06-16T12:02:52.277Z,37.50
2018-06-16T12:05:20.850Z,38.00
2018-06-16T12:07:49.089Z,39.00
2018-06-16T12:15:13.226Z,42.70
2018-06-16T12:17:41.459Z,44.20
2018-06-16T12:20:09.674Z,44.90
2018-06-16T12:22:37.881Z,45.00
2018-06-16T12:25:06.120Z,45.60
2018-06-16T12:27:34.362Z,45.60
2018-06-16T12:30:02.808Z,45.60
2018-06-16T12:32:31.040Z,46.20
2018-06-16T12:34:59.261Z,46.40
2018-06-16T12:37:27.485Z,47.10
2018-06-16T12:39:55.783Z,47.50
2018-06-16T12:42:24.033Z,48.20
2018-06-16T12:44:52.603Z,48.70
2018-06-16T12:47:20.942Z,48.90
2018-06-16T12:49:49.276Z,49.00
2018-06-16T12:52:17.494Z,48.30
2018-06-16T12:54:45.706Z,47.60
2018-06-16T12:59:42.056Z,47.20
2018-06-16T13:02:10.310Z,46.10
2018-06-16T13:04:38.559Z,45.80
2018-06-16T13:07:06.902Z,46.20
2018-06-16T13:09:35.121Z,46.50
2018-06-16T13:12:04.119Z,46.60
2018-06-16T13:14:32.317Z,46.90
2018-06-16T13:17:00.659Z,47.40
2018-06-16T13:19:28.995Z,47.70
2018-06-16T13:21:57.294Z,47.70
2018-06-16T13:24:25.524Z,48.00
2018-06-16T13:26:53.940Z,48.60
2018-06-16T13:29:22.331Z,49.40
2018-06-16T13:31:50.599Z,49.90
2018-06-16T13:34:18.826Z,50.50
2018-06-16T13:36:47.052Z,50.90
2018-06-16T13:39:15.325Z,50.50
2018-06-16T13:41:43.530Z,49.80
2018-06-16T13:44:11.950Z,49.80
2018-06-16T13:46:40.173Z,50.20
2018-06-16T13:49:08.393Z,51.00
2018-06-16T13:51:36.614Z,51.70
2018-06-16T13:54:05.049Z,52.10
2018-06-16T13:56:33.327Z,51.90
2018-06-16T13:59:01.493Z,52.00
2018-06-16T14:01:29.701Z,52.10
2018-06-16T14:03:57.941Z,52.70
2018-06-16T14:06:26.785Z,53.30
2018-06-16T14:08:54.965Z,53.70
2018-06-16T14:11:23.193Z,52.30
2018-06-16T14:13:51.446Z,49.80
2018-06-16T14:16:19.829Z,47.20
2018-06-16T14:18:48.082Z,44.60
2018-06-16T14:21:16.259Z,42.20
2018-06-16T14:23:44.617Z,40.80
2018-06-16T14:26:12.821Z,41.60
2018-06-16T14:28:41.226Z,42.20
2018-06-16T14:31:09.477Z,43.70
2018-06-16T14:33:37.719Z,46.00
2018-06-16T14:36:06.266Z,48.20
2018-06-16T14:38:34.598Z,49.50
2018-06-16T14:41:02.792Z,49.60
2018-06-16T14:43:30.986Z,49.50
2018-06-16T14:48:27.162Z,50.70
2018-06-16T14:50:55.365Z,49.60
2018-06-16T14:53:23.614Z,47.20
2018-06-16T14:55:51.829Z,45.70
2018-06-16T14:58:24.418Z,45.70
2018-06-16T15:00:52.814Z,47.20
2018-06-16T15:03:21.058Z,48.80
2018-06-16T15:05:49.374Z,50.20
2018-06-16T15:08:17.610Z,51.50
2018-06-16T15:10:45.809Z,51.30
2018-06-16T15:13:14.033Z,48.70
2018-06-16T15:15:42.293Z,45.90
2018-06-16T15:18:10.973Z,45.50
2018-06-16T15:20:39.425Z,45.00
2018-06-16T15:23:07.978Z,43.80
2018-06-16T15:25:36.746Z,42.80
2018-06-16T15:28:04.922Z,43.80
2018-06-16T15:30:33.117Z,45.70
2018-06-16T15:33:01.407Z,47.20
2018-06-16T15:35:29.917Z,48.90
2018-06-16T15:37:58.124Z,50.60
2018-06-16T15:40:26.357Z,51.70
2018-06-16T15:42:54.631Z,52.80
2018-06-16T15:45:22.986Z,53.50
2018-06-16T15:47:51.490Z,53.80
2018-06-16T15:50:19.766Z,54.40
2018-06-16T15:52:48.022Z,54.60
2018-06-16T15:55:16.238Z,55.00
2018-06-16T15:57:44.429Z,54.90
2018-06-16T16:00:12.648Z,54.80
2018-06-16T16:02:40.850Z,54.70
2018-06-16T16:05:09.073Z,54.30
2018-06-16T16:07:37.476Z,54.20
2018-06-16T16:10:05.766Z,54.00
2018-06-16T16:12:34.203Z,52.20
2018-06-16T16:15:02.390Z,49.20
2018-06-16T16:17:30.630Z,46.70
2018-06-16T16:19:58.870Z,46.30
2018-06-16T16:22:27.110Z,46.70
2018-06-16T16:24:55.338Z,47.10
2018-06-16T16:27:23.796Z,48.20
2018-06-16T16:29:51.969Z,49.50
2018-06-16T16:32:20.206Z,50.10
2018-06-16T16:34:48.422Z,50.60
2018-06-16T16:37:16.649Z,51.00
2018-06-16T16:39:44.902Z,50.50
2018-06-16T16:42:13.210Z,48.20
2018-06-16T16:44:41.589Z,45.50
2018-06-16T16:47:09.808Z,45.20
2018-06-16T16:49:38.071Z,46.20
2018-06-16T16:52:06.352Z,47.50
2018-06-16T16:54:34.605Z,48.50
2018-06-16T16:57:02.869Z,48.90
2018-06-16T16:59:31.053Z,49.00
2018-06-16T17:01:59.264Z,49.10
2018-06-16T17:04:27.540Z,49.30
2018-06-16T17:06:55.742Z,49.60
2018-06-16T17:09:24.011Z,49.40
2018-06-16T17:11:52.858Z,49.10
2018-06-16T17:14:21.097Z,48.70
2018-06-16T17:16:49.400Z,48.40
2018-06-16T17:19:17.679Z,48.20
2018-06-16T17:21:45.975Z,48.20
2018-06-16T17:24:14.234Z,47.30
2018-06-16T17:26:42.481Z,45.00
2018-06-16T17:29:10.778Z,42.10
2018-06-16T17:31:38.974Z,39.40
2018-06-16T17:34:08.586Z,37.30
2018-06-16T17:36:36.789Z,35.40
2018-06-16T17:39:07.801Z,33.80
2018-06-16T17:41:36.061Z,32.50
2018-06-16T17:44:04.317Z,31.50
2018-06-16T17:46:32.537Z,30.60
2018-06-16T17:49:00.761Z,29.80
2018-06-16T17:51:29.057Z,29.10
2018-06-16T17:53:57.321Z,28.60
2018-06-16T17:56:25.830Z,28.20
2018-06-16T17:58:54.275Z,27.70
2018-06-16T18:01:22.506Z,27.50
2018-06-16T18:03:50.729Z,27.20
2018-06-16T18:06:19.017Z,26.90
2018-06-16T18:08:47.277Z,26.60
2018-06-16T18:11:15.542Z,26.50
2018-06-16T18:13:43.737Z,26.20
2018-06-16T18:18:15.022Z,25.80
2018-06-16T18:21:58.075Z,25.50
2018-06-16T18:24:26.259Z,25.40
2018-06-16T18:26:54.515Z,25.30
2018-06-16T18:29:22.714Z,25.30
2018-06-16T18:31:50.923Z,25.20
2018-06-16T18:34:19.113Z,25.10
2018-06-16T18:36:47.308Z,25.10
2018-06-16T18:39:15.522Z,25.00
2018-06-16T18:41:43.942Z,25.00
2018-06-16T18:44:12.146Z,24.90
2018-06-16T18:46:40.356Z,24.80
2018-06-16T18:49:08.557Z,24.70
2018-06-16T18:51:36.757Z,24.70
2018-06-16T18:54:05.145Z,24.50
2018-06-16T18:56:33.366Z,24.50
2018-06-16T18:59:01.579Z,24.40
2018-06-16T19:01:29.848Z,24.30
2018-06-16T19:03:58.133Z,24.30
2018-06-16T19:06:26.336Z,24.20
2018-06-16T19:08:54.537Z,24.00
2018-06-16T19:11:22.737Z,24.00
2018-06-16T19:13:50.942Z,23.90
2018-06-16T19:16:19.148Z,23.80
2018-06-16T19:18:47.329Z,23.70
2018-06-16T19:21:15.601Z,23.60
2018-06-16T19:23:43.777Z,23.60
2018-06-16T19:26:12.011Z,23.50
2018-06-16T19:28:40.265Z,23.50
2018-06-16T19:31:08.494Z,23.40
2018-06-16T19:33:36.761Z,23.30
2018-06-16T19:36:05.058Z,23.20
2018-06-16T19:38:33.299Z,23.10
2018-06-16T19:41:01.554Z,23.10
2018-06-16T19:43:30.121Z,23.00
2018-06-16T19:45:58.321Z,23.00
2018-06-16T19:48:26.793Z,22.90
2018-06-16T19:50:55.074Z,22.90
2018-06-16T19:53:23.374Z,22.80
2018-06-16T19:55:51.598Z,22.70
2018-06-16T19:58:19.801Z,22.70
2018-06-16T20:00:48.049Z,22.70
2018-06-16T20:03:16.298Z,22.60
2018-06-16T20:05:44.509Z,22.60
2018-06-16T20:08:12.740Z,22.60
2018-06-16T20:10:41.039Z,22.50
2018-06-16T20:13:09.272Z,22.50
2018-06-16T20:15:37.586Z,22.40
2018-06-16T20:18:05.781Z,22.30
2018-06-16T20:20:34.087Z,22.30
2018-06-16T20:23:02.296Z,22.20
2018-06-16T20:25:30.629Z,22.20
2018-06-16T20:27:58.853Z,22.10
2018-06-16T20:30:27.090Z,22.10
2018-06-16T20:32:55.483Z,22.10
2018-06-16T20:35:23.749Z,22.10
2018-06-16T20:37:52.003Z,22.00
2018-06-16T20:40:20.225Z,22.00
2018-06-16T20:45:16.394Z,21.90
2018-06-16T20:47:44.597Z,21.90
2018-06-16T20:50:12.822Z,21.90
2018-06-16T20:55:09.376Z,21.80
2018-06-16T20:57:37.598Z,21.80
2018-06-16T21:00:06.535Z,21.80
2018-06-16T21:02:34.918Z,21.70
2018-06-16T21:05:03.262Z,21.70
2018-06-16T21:07:31.463Z,21.60
2018-06-16T21:12:27.759Z,21.50
2018-06-16T21:14:55.979Z,21.40
2018-06-16T21:17:24.461Z,21.40
2018-06-16T21:19:52.702Z,21.30
2018-06-16T21:22:20.911Z,21.20
2018-06-16T21:24:49.162Z,21.20
2018-06-16T21:27:17.494Z,21.10
2018-06-16T21:29:45.707Z,21.10
2018-06-16T21:32:13.963Z,21.10
2018-06-16T21:34:42.153Z,21.00
2018-06-16T21:37:10.365Z,21.00
2018-06-16T21:39:38.555Z,20.90
2018-06-16T21:44:34.787Z,20.80
2018-06-16T21:47:03.019Z,20.80
2018-06-16T21:49:31.362Z,20.70
2018-06-16T21:51:59.662Z,20.70
2018-06-16T21:54:27.888Z,20.60
2018-06-16T21:56:56.220Z,20.50
2018-06-16T21:59:24.450Z,20.50
2018-06-16T22:01:52.981Z,20.40
2018-06-16T22:04:21.313Z,20.40
2018-06-16T22:06:49.583Z,20.30
2018-06-16T22:09:17.802Z,20.30
2018-06-16T22:11:46.091Z,20.30
2018-06-16T22:14:14.318Z,20.20
2018-06-16T22:19:10.617Z,20.20
2018-06-16T22:21:38.875Z,20.10
2018-06-16T22:24:07.387Z,20.10
2018-06-16T22:26:35.582Z,20.00
2018-06-16T22:29:03.819Z,20.00
2018-06-16T22:31:32.135Z,19.90
2018-06-16T22:34:00.452Z,19.80
2018-06-16T22:38:56.835Z,19.70
2018-06-16T22:41:25.051Z,19.80
2018-06-16T22:43:53.308Z,19.80
2018-06-16T22:46:21.532Z,19.70
2018-06-16T22:48:49.742Z,19.70
2018-06-16T22:51:17.976Z,19.70
2018-06-16T22:53:46.202Z,19.70
2018-06-16T22:56:14.477Z,19.60
2018-06-16T22:58:42.697Z,19.60
2018-06-16T23:01:11.004Z,19.60
2018-06-16T23:03:39.225Z,19.50
2018-06-16T23:06:07.441Z,19.50
2018-06-16T23:08:35.974Z,19.40
2018-06-16T23:11:04.185Z,19.40
2018-06-16T23:13:32.422Z,19.30
2018-06-16T23:16:00.661Z,19.30
2018-06-16T23:18:28.933Z,19.30
2018-06-16T23:20:57.157Z,19.30
2018-06-16T23:25:53.605Z,19.20
2018-06-16T23:28:21.836Z,19.10
2018-06-16T23:30:50.149Z,19.10
2018-06-16T23:33:18.365Z,19.00
2018-06-16T23:35:46.614Z,19.00
2018-06-16T23:38:14.930Z,18.90
2018-06-16T23:40:43.206Z,18.90
2018-06-16T23:43:11.434Z,18.80
2018-06-16T23:45:39.653Z,18.80
2018-06-16T23:48:07.881Z,18.70
2018-06-16T23:50:37.101Z,18.60
2018-06-16T23:53:05.542Z,18.50
2018-06-16T23:55:33.758Z,18.40
2018-06-16T23:58:01.972Z,18.40
